Time;durP1;ratioP1;P1;durP2;ratioP2;P2;SDS_P1;SDS_P2;PMS_P1;PMS_P2;Temp;Humidity;BMP_temperature;BMP_pressure;BME280_temperature;BME280_humidity;BME280_pressure;Samples;Min_cycle;Max_cycle;Signal;HPM_P1;HPM_P2
2023/07/02 00:01:50;;;;;;;5.57;2.50;;;16.00;99.90;;;;;;5085547;28;20469;-87
2023/07/02 00:04:19;;;;;;;6.43;2.65;;;16.00;99.90;;;;;;5084132;28;20020;-88
2023/07/02 00:06:48;;;;;;;6.10;2.53;;;16.00;99.90;;;;;;5082149;28;20676;-88
2023/07/02 00:09:14;;;;;;;4.97;2.65;;;16.00;99.90;;;;;;5080347;28;20054;-89
2023/07/02 00:11:42;;;;;;;12.77;2.80;;;16.00;99.90;;;;;;5084855;28;20127;-87
2023/07/02 00:14:08;;;;;;;2.92;2.63;;;16.00;99.90;;;;;;5078947;28;20040;-88
2023/07/02 00:16:35;;;;;;;5.90;2.53;;;15.90;99.90;;;;;;5083049;28;20328;-87
2023/07/02 00:19:01;;;;;;;6.13;2.45;;;15.90;99.90;;;;;;5068848;28;20119;-88
2023/07/02 00:21:27;;;;;;;8.13;2.67;;;15.90;99.90;;;;;;5085012;28;20099;-89
2023/07/02 00:23:56;;;;;;;11.93;2.85;;;15.90;99.90;;;;;;5085434;28;20031;-88
2023/07/02 00:26:23;;;;;;;2.65;2.45;;;15.90;99.90;;;;;;5077890;28;20107;-88
2023/07/02 00:28:54;;;;;;;2.80;2.60;;;15.80;99.90;;;;;;5080592;28;20024;-88
2023/07/02 00:31:19;;;;;;;2.30;2.17;;;15.90;99.90;;;;;;5075294;28;20044;-88
2023/07/02 00:33:51;;;;;;;2.20;2.10;;;15.80;99.90;;;;;;5077375;28;20073;-88
2023/07/02 00:36:17;;;;;;;2.38;2.25;;;15.90;99.90;;;;;;5084285;28;20062;-88
2023/07/02 00:38:45;;;;;;;3.50;2.40;;;15.90;99.90;;;;;;5079887;28;20436;-88
2023/07/02 00:41:11;;;;;;;5.22;2.65;;;15.90;99.90;;;;;;5075464;28;20036;-88
2023/07/02 00:43:39;;;;;;;4.00;2.10;;;15.90;99.90;;;;;;5075781;28;20060;-89
2023/07/02 00:46:05;;;;;;;6.75;2.30;;;16.00;99.90;;;;;;5081938;28;20043;-90
2023/07/02 00:48:31;;;;;;;3.33;2.45;;;16.00;99.90;;;;;;5079480;28;20032;-89
2023/07/02 00:50:57;;;;;;;3.72;2.38;;;16.00;99.90;;;;;;5084255;28;20052;-88
2023/07/02 00:53:22;;;;;;;2.30;2.10;;;16.00;99.90;;;;;;5084717;28;20204;-88
2023/07/02 00:55:48;;;;;;;3.83;2.35;;;16.00;99.90;;;;;;5083338;28;20071;-87
2023/07/02 00:58:15;;;;;;;5.40;2.53;;;16.00;99.90;;;;;;5081593;28;20070;-89
2023/07/02 01:00:43;;;;;;;4.20;2.45;;;15.90;99.90;;;;;;5084692;28;20040;-89
2023/07/02 01:03:08;;;;;;;3.78;2.10;;;15.90;99.90;;;;;;5078513;28;20058;-89
2023/07/02 01:05:37;;;;;;;2.42;2.10;;;15.90;99.90;;;;;;5079480;28;20044;-88
2023/07/02 01:08:08;;;;;;;2.65;2.30;;;15.90;99.90;;;;;;5082616;28;20228;-89
2023/07/02 01:10:39;;;;;;;3.58;2.35;;;15.90;99.90;;;;;;5081959;28;20044;-88
2023/07/02 01:13:16;;;;;;;5.60;2.00;;;15.90;99.90;;;;;;5082219;28;20032;-89
2023/07/02 01:15:43;;;;;;;5.03;2.30;;;15.90;99.90;;;;;;5076791;28;20063;-88
2023/07/02 01:18:10;;;;;;;2.42;1.90;;;16.00;99.90;;;;;;5085388;28;20020;-87
2023/07/02 01:20:39;;;;;;;4.40;2.55;;;15.90;99.90;;;;;;5080402;28;20041;-88
2023/07/02 01:23:05;;;;;;;8.02;2.70;;;15.90;99.90;;;;;;5083373;28;20024;-87
2023/07/02 01:25:31;;;;;;;5.60;2.58;;;15.90;99.90;;;;;;5079032;28;20039;-87
2023/07/02 01:27:58;;;;;;;7.03;2.35;;;16.00;99.90;;;;;;5081429;28;20035;-87
2023/07/02 01:30:25;;;;;;;6.38;2.85;;;16.00;99.90;;;;;;5078786;28;20366;-85
2023/07/02 01:32:50;;;;;;;3.35;2.22;;;16.00;99.90;;;;;;5076268;28;20063;-89
2023/07/02 01:35:16;;;;;;;9.18;3.03;;;16.00;99.90;;;;;;5078382;28;20419;-87
2023/07/02 01:37:51;;;;;;;4.28;3.00;;;16.00;99.90;;;;;;5082098;28;20416;-85
2023/07/02 01:40:16;;;;;;;6.85;2.72;;;16.10;99.90;;;;;;5075274;28;20028;-89
2023/07/02 01:42:42;;;;;;;5.70;2.38;;;16.00;99.90;;;;;;5080075;28;20477;-89
2023/07/02 01:45:08;;;;;;;2.78;2.58;;;16.00;99.90;;;;;;5076884;28;20024;-90
2023/07/02 01:47:36;;;;;;;5.78;2.95;;;16.00;99.90;;;;;;5083302;28;20028;-91
2023/07/02 01:50:04;;;;;;;5.57;2.72;;;16.00;99.90;;;;;;5082111;28;20032;-90
2023/07/02 01:52:32;;;;;;;5.55;3.03;;;16.00;99.90;;;;;;5081034;28;20040;-87
2023/07/02 01:54:59;;;;;;;6.93;3.10;;;16.00;99.90;;;;;;5079970;28;20037;-86
2023/07/02 01:57:24;;;;;;;3.60;3.28;;;16.00;99.90;;;;;;5083146;28;20020;-88
2023/07/02 01:59:50;;;;;;;7.95;3.40;;;16.00;99.90;;;;;;5078532;28;20036;-90
2023/07/02 02:02:15;;;;;;;8.65;3.42;;;16.00;99.90;;;;;;5080591;28;20351;-88
2023/07/02 02:04:44;;;;;;;6.65;3.70;;;16.00;99.90;;;;;;5069700;28;20101;-88
2023/07/02 02:07:09;;;;;;;6.40;3.17;;;16.00;99.90;;;;;;5075902;28;20032;-88
2023/07/02 02:09:41;;;;;;;7.78;3.53;;;16.00;99.90;;;;;;5085286;28;20389;-89
2023/07/02 02:12:07;;;;;;;4.50;3.00;;;16.00;99.90;;;;;;5080876;28;20392;-90
2023/07/02 02:14:32;;;;;;;7.57;3.28;;;16.00;99.90;;;;;;5071951;28;20033;-89
2023/07/02 02:16:58;;;;;;;4.20;2.80;;;16.10;99.90;;;;;;5083353;28;20183;-90
2023/07/02 02:19:23;;;;;;;3.13;2.20;;;16.10;99.90;;;;;;5082548;28;20036;-90
2023/07/02 02:21:49;;;;;;;2.78;2.38;;;16.10;99.90;;;;;;5083857;28;20071;-89
2023/07/02 02:24:15;;;;;;;5.03;2.92;;;16.10;99.90;;;;;;5080181;28;20029;-87
2023/07/02 02:26:40;;;;;;;4.95;2.85;;;16.10;99.90;;;;;;5083985;28;20047;-89
2023/07/02 02:29:06;;;;;;;3.05;2.75;;;16.10;99.90;;;;;;5085480;28;20036;-87
2023/07/02 02:31:31;;;;;;;6.97;3.00;;;16.00;99.90;;;;;;5088397;28;20385;-88
2023/07/02 02:33:57;;;;;;;8.05;3.72;;;16.00;99.90;;;;;;5086979;28;20092;-89
2023/07/02 02:36:22;;;;;;;4.00;3.60;;;16.00;99.90;;;;;;5089587;28;20570;-89
2023/07/02 02:38:48;;;;;;;4.13;3.25;;;16.00;99.90;;;;;;5095871;28;20020;-89
2023/07/02 02:41:13;;;;;;;5.00;3.40;;;15.90;99.90;;;;;;5090746;28;20034;-90
2023/07/02 02:43:45;;;;;;;3.92;2.88;;;15.90;99.90;;;;;;5094392;28;20440;-87
2023/07/02 02:46:11;;;;;;;3.58;2.63;;;15.90;99.90;;;;;;5091711;28;20028;-88
2023/07/02 02:48:45;;;;;;;12.50;2.97;;;15.90;99.90;;;;;;5091392;28;20115;-90
2023/07/02 02:51:11;;;;;;;3.83;2.30;;;15.90;99.90;;;;;;5087746;28;20036;-89
2023/07/02 02:53:36;;;;;;;4.90;2.38;;;15.90;99.90;;;;;;5087662;28;20029;-87
2023/07/02 02:56:02;;;;;;;9.23;3.08;;;15.90;99.90;;;;;;5087921;28;20031;-88
2023/07/02 02:58:28;;;;;;;3.25;2.65;;;15.90;99.90;;;;;;5088878;28;20138;-89
2023/07/02 03:00:53;;;;;;;4.15;2.55;;;15.90;99.90;;;;;;5097987;28;20036;-87
2023/07/02 03:03:20;;;;;;;6.30;2.38;;;15.80;99.90;;;;;;5084441;28;20495;-90
2023/07/02 03:05:51;;;;;;;5.00;2.35;;;15.80;99.90;;;;;;5103962;28;20081;-88
2023/07/02 03:08:17;;;;;;;6.63;2.45;;;15.70;99.90;;;;;;5077393;28;20085;-86
2023/07/02 03:10:43;;;;;;;2.95;2.33;;;15.70;99.90;;;;;;5089178;28;20040;-87
2023/07/02 03:13:08;;;;;;;7.15;2.50;;;15.70;99.90;;;;;;5090771;28;20089;-90
2023/07/02 03:15:34;;;;;;;5.10;2.78;;;15.70;99.90;;;;;;5079762;28;20361;-87
2023/07/02 03:17:59;;;;;;;8.70;2.80;;;15.70;99.90;;;;;;5080976;28;20019;-88
2023/07/02 03:20:25;;;;;;;2.92;2.17;;;15.70;99.90;;;;;;5098638;28;20020;-87
2023/07/02 03:22:50;;;;;;;5.07;3.00;;;15.70;99.90;;;;;;5093189;28;20490;-88
2023/07/02 03:25:16;;;;;;;4.25;2.60;;;15.70;99.90;;;;;;5093521;28;20073;-90
2023/07/02 03:27:44;;;;;;;8.70;2.63;;;15.70;99.90;;;;;;5086351;28;20043;-86
2023/07/02 03:30:10;;;;;;;4.40;2.67;;;15.70;99.90;;;;;;5100863;28;20036;-89
2023/07/02 03:32:41;;;;;;;6.53;2.75;;;15.70;99.90;;;;;;5079433;28;20429;-90
2023/07/02 03:35:07;;;;;;;5.72;2.58;;;15.70;99.90;;;;;;5082557;28;20027;-85
2023/07/02 03:37:32;;;;;;;4.00;2.50;;;15.70;99.90;;;;;;5083281;28;20539;-88
2023/07/02 03:39:58;;;;;;;3.63;2.35;;;15.60;99.90;;;;;;5084972;28;20043;-86
2023/07/02 03:42:24;;;;;;;5.30;2.63;;;15.60;99.90;;;;;;5082717;28;20029;-87
2023/07/02 03:44:49;;;;;;;4.22;2.78;;;15.60;99.90;;;;;;5083873;28;20032;-88
2023/07/02 03:47:16;;;;;;;3.78;2.88;;;15.60;99.90;;;;;;5084587;28;20031;-87
2023/07/02 03:49:44;;;;;;;5.97;3.10;;;15.60;99.90;;;;;;5080474;28;20153;-86
2023/07/02 03:52:10;;;;;;;11.57;3.25;;;15.60;99.90;;;;;;5078282;28;20026;-87
2023/07/02 03:54:37;;;;;;;6.68;3.45;;;15.60;99.90;;;;;;5083535;28;20039;-87
2023/07/02 03:57:03;;;;;;;6.55;3.10;;;15.60;99.90;;;;;;5084560;28;20028;-89
2023/07/02 03:59:30;;;;;;;8.25;2.78;;;15.60;99.90;;;;;;5078780;28;20020;-86
2023/07/02 04:01:56;;;;;;;3.97;3.13;;;15.50;99.90;;;;;;5079205;28;20028;-84
2023/07/02 04:04:21;;;;;;;6.00;3.28;;;15.50;99.90;;;;;;5078098;28;20384;-87
2023/07/02 04:06:47;;;;;;;4.22;2.88;;;15.50;99.90;;;;;;5084349;28;20456;-88
2023/07/02 04:09:12;;;;;;;7.03;3.30;;;15.50;99.90;;;;;;5081331;28;20427;-86
2023/07/02 04:11:38;;;;;;;5.72;3.35;;;15.50;99.90;;;;;;5085443;28;20127;-86
2023/07/02 04:14:05;;;;;;;5.07;3.13;;;15.50;99.90;;;;;;5084038;28;20469;-86
2023/07/02 04:16:30;;;;;;;6.53;3.65;;;15.50;99.90;;;;;;5084465;28;20043;-86
2023/07/02 04:18:56;;;;;;;8.80;4.05;;;15.40;99.90;;;;;;5085273;28;20028;-86
2023/07/02 04:21:21;;;;;;;4.45;3.03;;;15.40;99.90;;;;;;5084921;28;20528;-87
2023/07/02 04:23:52;;;;;;;5.63;3.58;;;15.50;99.90;;;;;;5079459;28;20095;-87
2023/07/02 04:26:18;;;;;;;5.50;3.70;;;15.50;99.90;;;;;;5082138;28;20027;-88
2023/07/02 04:28:44;;;;;;;5.13;3.65;;;15.50;99.90;;;;;;5082674;28;20024;-87
2023/07/02 04:31:09;;;;;;;4.53;3.30;;;15.50;99.90;;;;;;5083528;28;20040;-88
2023/07/02 04:33:35;;;;;;;3.97;3.25;;;15.60;99.90;;;;;;5079575;28;20117;-88
2023/07/02 04:36:04;;;;;;;8.95;3.20;;;15.60;99.90;;;;;;5084382;28;20107;-87
2023/07/02 04:38:30;;;;;;;5.13;4.05;;;15.60;99.90;;;;;;5084060;28;20855;-86
2023/07/02 04:41:01;;;;;;;11.77;4.00;;;15.60;99.90;;;;;;5078835;28;20031;-87
2023/07/02 04:43:29;;;;;;;5.70;3.85;;;15.60;99.90;;;;;;5077476;28;20106;-86
2023/07/02 04:45:55;;;;;;;7.88;4.75;;;15.70;99.90;;;;;;5081046;28;20016;-87
2023/07/02 04:48:20;;;;;;;12.00;3.65;;;15.70;99.90;;;;;;5082450;28;20077;-87
2023/07/02 04:50:46;;;;;;;4.93;4.43;;;15.70;99.90;;;;;;5066969;28;20079;-88
2023/07/02 04:53:11;;;;;;;13.82;6.38;;;15.70;99.90;;;;;;5077927;28;20032;-85
2023/07/02 04:55:37;;;;;;;7.88;5.45;;;15.90;99.90;;;;;;5080133;28;20028;-86
2023/07/02 04:58:02;;;;;;;9.65;6.28;;;15.90;99.90;;;;;;5074009;28;20033;-83
2023/07/02 05:00:28;;;;;;;10.15;6.60;;;16.00;99.90;;;;;;5072993;28;20027;-86
2023/07/02 05:02:56;;;;;;;9.80;6.18;;;16.20;99.90;;;;;;5084625;28;20105;-83
2023/07/02 05:05:22;;;;;;;10.20;6.53;;;16.20;99.90;;;;;;5080740;28;20040;-85
2023/07/02 05:07:50;;;;;;;8.13;5.63;;;16.20;99.90;;;;;;5084584;28;20598;-86
2023/07/02 05:10:16;;;;;;;6.90;6.10;;;16.20;99.90;;;;;;5083573;28;20386;-87
2023/07/02 05:12:41;;;;;;;6.88;5.05;;;16.20;99.90;;;;;;5082373;28;20039;-86
2023/07/02 05:15:07;;;;;;;7.88;5.80;;;16.20;99.90;;;;;;5079915;28;20063;-87
2023/07/02 05:17:34;;;;;;;11.07;6.60;;;16.20;99.90;;;;;;5079771;28;20158;-87
2023/07/02 05:20:01;;;;;;;8.75;6.00;;;16.30;99.90;;;;;;5078797;28;20054;-86
2023/07/02 05:22:26;;;;;;;6.43;5.40;;;16.30;99.90;;;;;;5079991;28;20032;-86
2023/07/02 05:24:52;;;;;;;14.95;6.57;;;16.40;99.90;;;;;;5084043;28;20357;-85
2023/07/02 05:27:17;;;;;;;10.25;5.72;;;16.40;99.90;;;;;;5082070;28;20024;-87
2023/07/02 05:29:43;;;;;;;6.70;4.93;;;16.40;99.90;;;;;;5076367;28;20056;-90
2023/07/02 05:32:09;;;;;;;8.75;5.30;;;16.40;99.90;;;;;;5076276;28;20057;-87
2023/07/02 05:34:35;;;;;;;10.95;5.95;;;16.50;99.90;;;;;;5077135;28;20055;-85
2023/07/02 05:37:01;;;;;;;7.18;5.03;;;16.40;99.90;;;;;;5082681;28;20406;-87
2023/07/02 05:39:26;;;;;;;9.50;5.78;;;16.40;99.90;;;;;;5085838;28;20039;-86
2023/07/02 05:41:52;;;;;;;9.57;5.28;;;16.40;99.90;;;;;;5078962;28;20107;-86
2023/07/02 05:44:17;;;;;;;13.35;5.97;;;16.50;99.90;;;;;;5078628;28;20471;-86
2023/07/02 05:46:46;;;;;;;6.45;4.75;;;16.50;99.90;;;;;;5081542;28;20052;-86
2023/07/02 05:49:11;;;;;;;11.90;6.13;;;16.60;99.90;;;;;;5065271;28;20115;-88
2023/07/02 05:51:37;;;;;;;6.95;4.43;;;16.60;99.90;;;;;;5081783;28;20115;-87
2023/07/02 05:54:02;;;;;;;12.05;5.88;;;16.70;99.90;;;;;;5084196;28;20032;-85
2023/07/02 05:56:28;;;;;;;12.23;5.18;;;16.70;99.90;;;;;;5085458;28;20020;-85
2023/07/02 05:58:53;;;;;;;9.63;4.93;;;16.70;99.90;;;;;;5087706;28;20085;-85
2023/07/02 06:01:19;;;;;;;8.98;4.18;;;16.80;99.90;;;;;;5066841;28;20107;-86
2023/07/02 06:03:45;;;;;;;7.55;4.60;;;16.70;99.90;;;;;;5084721;28;20024;-88
2023/07/02 06:06:11;;;;;;;8.60;4.13;;;16.70;99.90;;;;;;5081015;28;20031;-86
2023/07/02 06:08:37;;;;;;;4.63;3.72;;;16.70;99.90;;;;;;5075087;28;20024;-87
2023/07/02 06:11:02;;;;;;;7.55;4.07;;;16.70;99.90;;;;;;5085889;28;20085;-86
2023/07/02 06:13:28;;;;;;;12.15;5.88;;;16.70;99.90;;;;;;5077831;28;20435;-86
2023/07/02 06:15:53;;;;;;;11.23;4.45;;;16.70;99.90;;;;;;5084436;28;20111;-85
2023/07/02 06:18:19;;;;;;;14.57;4.70;;;16.70;99.90;;;;;;5085714;28;20024;-86
2023/07/02 06:20:46;;;;;;;6.25;3.53;;;16.70;99.90;;;;;;5086745;28;20442;-89
2023/07/02 06:23:11;;;;;;;10.07;4.03;;;16.70;99.90;;;;;;5065453;28;20036;-86
2023/07/02 06:25:36;;;;;;;5.90;3.83;;;16.60;99.90;;;;;;5086476;28;20067;-86
2023/07/02 06:28:02;;;;;;;9.40;4.07;;;16.70;99.90;;;;;;5084507;28;20032;-85
2023/07/02 06:30:29;;;;;;;9.57;4.18;;;16.60;99.90;;;;;;5083088;28;20043;-86
2023/07/02 06:32:55;;;;;;;5.88;3.80;;;16.70;99.90;;;;;;5084071;28;20044;-85
2023/07/02 06:35:20;;;;;;;7.30;4.93;;;16.60;99.90;;;;;;5084806;28;20024;-85
2023/07/02 06:37:46;;;;;;;10.68;3.97;;;16.70;99.90;;;;;;5077000;28;20346;-86
2023/07/02 06:40:12;;;;;;;8.05;3.55;;;16.70;99.90;;;;;;5083142;28;20461;-83
2023/07/02 06:42:37;;;;;;;14.68;3.85;;;16.70;99.90;;;;;;5088155;28;20024;-84
2023/07/02 06:45:04;;;;;;;12.05;4.85;;;16.70;99.90;;;;;;5082547;28;20036;-85
2023/07/02 06:47:29;;;;;;;5.25;3.28;;;16.70;99.90;;;;;;5082103;28;20032;-85
2023/07/02 06:49:55;;;;;;;7.35;4.13;;;16.70;99.90;;;;;;5081932;28;20039;-83
2023/07/02 06:52:20;;;;;;;8.07;3.92;;;16.70;99.90;;;;;;5084703;28;20505;-84
2023/07/02 06:54:46;;;;;;;7.43;4.05;;;16.70;99.90;;;;;;5079921;28;20024;-83
2023/07/02 06:57:13;;;;;;;10.95;4.22;;;16.70;99.90;;;;;;5078954;28;20107;-85
2023/07/02 06:59:40;;;;;;;13.85;4.28;;;16.70;99.90;;;;;;5083107;28;20028;-83
2023/07/02 07:02:06;;;;;;;7.90;4.43;;;16.70;99.90;;;;;;5073228;28;20044;-83
2023/07/02 07:04:34;;;;;;;7.95;3.58;;;16.80;99.90;;;;;;5079664;28;20036;-83
2023/07/02 07:07:00;;;;;;;12.27;4.43;;;16.70;99.90;;;;;;5064980;28;20220;-83
2023/07/02 07:09:25;;;;;;;9.85;4.00;;;16.80;99.90;;;;;;5083867;28;20699;-83
2023/07/02 07:11:51;;;;;;;5.72;3.97;;;16.80;99.90;;;;;;5082672;28;20036;-88
2023/07/02 07:14:16;;;;;;;6.50;4.15;;;16.80;99.90;;;;;;5087874;28;20028;-84
2023/07/02 07:16:42;;;;;;;6.95;4.00;;;16.80;99.90;;;;;;5084457;28;20097;-87
2023/07/02 07:19:07;;;;;;;7.97;4.07;;;16.80;99.90;;;;;;5077943;28;20127;-85
2023/07/02 07:21:35;;;;;;;11.63;5.07;;;16.80;99.90;;;;;;5087216;28;20035;-89
2023/07/02 07:24:01;;;;;;;8.07;4.90;;;16.90;99.90;;;;;;5079651;28;20031;-84
2023/07/02 07:26:26;;;;;;;7.80;4.43;;;16.80;99.90;;;;;;5084667;28;20032;-85
2023/07/02 07:28:54;;;;;;;13.27;4.97;;;16.80;99.90;;;;;;5068198;28;20033;-86
2023/07/02 07:31:20;;;;;;;12.93;5.22;;;16.80;99.90;;;;;;5080222;28;20048;-86
2023/07/02 07:33:45;;;;;;;8.77;4.53;;;16.80;99.90;;;;;;5085144;28;20023;-87
2023/07/02 07:36:11;;;;;;;11.65;4.30;;;16.80;99.90;;;;;;5084495;28;20040;-86
2023/07/02 07:38:36;;;;;;;10.93;4.32;;;16.90;99.90;;;;;;5079639;28;20032;-85
2023/07/02 07:41:02;;;;;;;12.93;5.57;;;16.90;99.90;;;;;;5082187;28;20041;-85
2023/07/02 07:43:27;;;;;;;9.52;5.47;;;16.90;99.90;;;;;;5079245;28;20390;-86
2023/07/02 07:45:53;;;;;;;10.23;5.50;;;16.90;99.90;;;;;;5075957;28;20457;-86
2023/07/02 07:48:18;;;;;;;15.10;6.07;;;16.90;99.90;;;;;;5076735;28;20029;-85
2023/07/02 07:50:44;;;;;;;9.40;5.45;;;16.90;99.90;;;;;;5085071;28;20047;-84
2023/07/02 07:53:10;;;;;;;11.52;6.32;;;16.80;99.90;;;;;;5079795;28;20028;-86
2023/07/02 07:55:35;;;;;;;10.05;5.50;;;16.80;99.90;;;;;;5074834;28;20031;-85
2023/07/02 07:58:01;;;;;;;22.02;6.80;;;16.70;99.90;;;;;;5075228;28;20119;-85
2023/07/02 08:00:26;;;;;;;17.65;7.57;;;16.70;99.90;;;;;;5084935;28;20165;-87
2023/07/02 08:02:55;;;;;;;9.23;7.90;;;16.50;99.90;;;;;;5081352;28;20050;-85
2023/07/02 08:05:20;;;;;;;15.60;8.77;;;16.50;99.90;;;;;;5069549;28;20028;-86
2023/07/02 08:07:46;;;;;;;12.88;8.25;;;16.40;99.90;;;;;;5076050;28;20122;-85
2023/07/02 08:10:11;;;;;;;14.13;8.52;;;16.30;99.90;;;;;;5081726;28;20165;-85
2023/07/02 08:12:37;;;;;;;18.73;8.55;;;16.30;99.90;;;;;;5083855;28;20044;-85
2023/07/02 08:15:03;;;;;;;20.83;8.38;;;16.30;99.90;;;;;;5085919;28;20031;-87
2023/07/02 08:17:30;;;;;;;20.95;8.57;;;16.20;99.90;;;;;;5077429;28;20469;-86
2023/07/02 08:19:56;;;;;;;23.48;8.88;;;16.20;99.90;;;;;;5079975;28;20393;-84
2023/07/02 08:22:22;;;;;;;22.40;9.15;;;16.30;99.90;;;;;;5079330;28;20034;-84
2023/07/02 08:24:49;;;;;;;23.30;8.65;;;16.30;99.90;;;;;;5080863;28;20447;-87
2023/07/02 08:27:18;;;;;;;22.52;9.40;;;16.30;99.90;;;;;;5079508;28;20028;-86
2023/07/02 08:29:44;;;;;;;25.77;9.35;;;16.30;99.90;;;;;;5083870;28;20024;-88
2023/07/02 08:32:10;;;;;;;22.70;9.05;;;16.40;99.90;;;;;;5080645;28;20062;-84
2023/07/02 08:34:35;;;;;;;27.55;8.98;;;16.50;99.90;;;;;;5082467;28;20179;-86
2023/07/02 08:37:01;;;;;;;21.98;9.15;;;16.50;99.90;;;;;;5080917;28;20487;-84
2023/07/02 08:39:27;;;;;;;25.42;10.43;;;16.50;99.90;;;;;;5077744;28;20028;-86
2023/07/02 08:41:52;;;;;;;19.50;9.27;;;16.60;99.90;;;;;;5079200;28;20020;-83
2023/07/02 08:44:21;;;;;;;25.88;9.85;;;16.70;99.90;;;;;;5076763;28;20363;-86
2023/07/02 08:46:50;;;;;;;19.58;9.55;;;16.90;99.90;;;;;;5084446;28;20039;-89
2023/07/02 08:49:16;;;;;;;19.52;8.60;;;17.00;99.90;;;;;;5083328;28;20020;-86
2023/07/02 08:51:45;;;;;;;23.73;9.50;;;17.10;99.90;;;;;;5082890;28;20457;-90
2023/07/02 08:54:10;;;;;;;23.35;10.40;;;17.20;99.90;;;;;;5081265;28;20563;-88
2023/07/02 08:56:35;;;;;;;23.70;9.75;;;17.30;99.90;;;;;;5077433;28;20036;-85
2023/07/02 08:59:01;;;;;;;23.55;10.38;;;17.40;99.90;;;;;;5074340;28;20029;-87
2023/07/02 09:01:27;;;;;;;26.05;9.32;;;17.50;99.90;;;;;;5077313;28;20028;-88
2023/07/02 09:04:00;;;;;;;21.70;9.63;;;17.60;99.90;;;;;;5082892;28;20131;-86
2023/07/02 09:06:25;;;;;;;21.95;9.68;;;17.80;99.90;;;;;;5082609;28;20043;-85
2023/07/02 09:08:51;;;;;;;20.30;9.13;;;17.90;99.90;;;;;;5068641;28;20027;-85
2023/07/02 09:11:17;;;;;;;22.58;8.98;;;18.00;99.90;;;;;;5082503;28;20180;-93
2023/07/02 09:13:47;;;;;;;18.77;9.38;;;18.00;99.90;;;;;;5075061;28;20036;-89
2023/07/02 09:16:33;;;;;;;30.08;10.02;;;18.10;99.90;;;;;;5079528;28;20436;-85
2023/07/02 09:19:08;;;;;;;22.90;9.52;;;18.10;99.90;;;;;;5074686;28;20028;-85
2023/07/02 09:21:44;;;;;;;18.52;8.40;;;18.00;99.90;;;;;;5078775;28;20106;-87
2023/07/02 09:24:23;;;;;;;19.20;8.40;;;18.10;99.90;;;;;;5080175;28;20052;-88
2023/07/02 09:26:55;;;;;;;18.08;7.97;;;18.20;99.90;;;;;;5076993;28;20058;-86
2023/07/02 09:29:24;;;;;;;20.77;8.80;;;18.30;99.90;;;;;;5076266;28;20060;-84
2023/07/02 09:31:51;;;;;;;20.25;8.60;;;18.50;99.90;;;;;;5083617;28;20476;-84
2023/07/02 09:34:16;;;;;;;17.48;8.98;;;18.60;99.90;;;;;;5083092;28;20068;-90
2023/07/02 09:36:43;;;;;;;19.98;9.05;;;18.70;99.90;;;;;;5082252;28;20060;-86
2023/07/02 09:39:12;;;;;;;24.08;9.02;;;18.80;99.90;;;;;;5087525;28;20028;-87
2023/07/02 09:41:40;;;;;;;19.70;9.02;;;18.70;99.90;;;;;;5085644;28;20028;-85
2023/07/02 09:44:07;;;;;;;28.65;9.60;;;18.80;99.90;;;;;;5085029;28;20039;-86
2023/07/02 09:46:35;;;;;;;27.70;10.55;;;18.80;99.90;;;;;;5088028;28;20032;-86
2023/07/02 09:49:01;;;;;;;29.38;10.15;;;18.80;99.90;;;;;;5086396;28;20077;-87
2023/07/02 09:51:27;;;;;;;19.83;8.98;;;19.00;99.90;;;;;;5079068;28;20032;-90
2023/07/02 09:53:53;;;;;;;30.83;10.65;;;19.10;99.90;;;;;;5081554;28;20089;-87
2023/07/02 09:56:21;;;;;;;26.85;10.73;;;19.20;99.90;;;;;;5087545;28;20017;-88
2023/07/02 09:58:47;;;;;;;31.85;10.73;;;19.30;99.90;;;;;;5067259;28;20035;-88
2023/07/02 10:01:12;;;;;;;33.10;10.80;;;19.20;99.90;;;;;;5083205;28;20036;-86
2023/07/02 10:03:38;;;;;;;25.60;11.45;;;19.20;99.90;;;;;;5085618;28;20387;-87
2023/07/02 10:06:06;;;;;;;28.77;10.32;;;19.10;99.90;;;;;;5070807;28;20028;-83
2023/07/02 10:08:32;;;;;;;24.48;11.00;;;19.20;99.90;;;;;;5086003;28;20088;-90
2023/07/02 10:11:35;;;;;;;33.33;10.68;;;19.20;99.90;;;;;;5084639;28;20036;-87
2023/07/02 10:14:00;;;;;;;34.20;10.25;;;19.30;99.90;;;;;;5072343;28;20045;-89
2023/07/02 10:16:31;;;;;;;23.65;10.40;;;19.40;99.90;;;;;;5085794;28;20046;-86
2023/07/02 10:19:09;;;;;;;23.73;11.25;;;19.40;99.90;;;;;;5085364;28;20495;-87
2023/07/02 10:21:35;;;;;;;24.50;10.63;;;19.30;99.90;;;;;;5085613;28;20032;-89
2023/07/02 10:24:14;;;;;;;23.90;11.25;;;19.30;99.90;;;;;;5088146;28;20425;-85
2023/07/02 10:26:52;;;;;;;21.00;10.68;;;19.40;99.90;;;;;;5083443;28;20036;-91
2023/07/02 10:29:23;;;;;;;27.00;10.90;;;19.40;99.90;;;;;;5082951;28;20036;-85
2023/07/02 10:31:59;;;;;;;29.20;10.50;;;19.40;99.90;;;;;;5083491;28;20286;-85
2023/07/02 10:34:29;;;;;;;27.67;10.80;;;19.40;99.90;;;;;;5082772;28;20024;-83
2023/07/02 10:36:55;;;;;;;31.92;11.10;;;19.40;99.90;;;;;;5079877;28;20060;-94
2023/07/02 10:39:20;;;;;;;36.03;11.13;;;19.40;99.90;;;;;;5080031;28;20055;-85
2023/07/02 10:41:46;;;;;;;33.25;11.10;;;19.50;99.90;;;;;;5087109;28;20052;-85
2023/07/02 10:44:11;;;;;;;26.20;11.02;;;19.60;99.90;;;;;;5087035;28;20480;-86
2023/07/02 10:46:47;;;;;;;32.88;11.38;;;19.70;99.90;;;;;;5083933;28;20024;-86
2023/07/02 10:49:17;;;;;;;27.38;11.73;;;19.80;99.90;;;;;;5084355;28;20028;-85
2023/07/02 10:51:43;;;;;;;26.40;10.07;;;19.50;99.90;;;;;;5090007;28;20036;-88
2023/07/02 10:54:08;;;;;;;30.88;11.90;;;19.40;99.90;;;;;;5083204;28;20028;-83
2023/07/02 10:56:35;;;;;;;27.73;11.13;;;19.30;99.90;;;;;;5076593;28;20150;-85
2023/07/02 10:59:01;;;;;;;32.63;12.30;;;19.20;99.90;;;;;;5082976;28;20107;-91
2023/07/02 11:01:28;;;;;;;28.52;10.95;;;19.10;99.90;;;;;;5071781;28;20032;-85
2023/07/02 11:04:05;;;;;;;26.73;12.88;;;19.10;99.90;;;;;;5078914;28;20024;-91
2023/07/02 11:06:33;;;;;;;36.03;11.75;;;19.00;99.90;;;;;;5082974;28;20392;-86
2023/07/02 11:08:59;;;;;;;29.25;11.63;;;19.00;99.90;;;;;;5087209;28;20480;-85
2023/07/02 11:11:25;;;;;;;26.65;11.88;;;19.00;99.90;;;;;;5085526;28;20047;-91
2023/07/02 11:13:52;;;;;;;28.17;11.70;;;19.00;99.90;;;;;;5078939;28;20036;-84
2023/07/02 11:16:26;;;;;;;33.47;13.20;;;19.00;99.90;;;;;;5080999;28;20446;-83
2023/07/02 11:19:11;;;;;;;24.52;12.23;;;19.00;99.90;;;;;;5080283;28;20146;-88
2023/07/02 11:21:37;;;;;;;30.63;13.50;;;19.00;99.90;;;;;;5081717;28;20031;-84
2023/07/02 11:24:03;;;;;;;36.25;13.13;;;19.00;99.90;;;;;;5074065;28;20380;-84
2023/07/02 11:26:36;;;;;;;31.75;12.45;;;18.80;99.90;;;;;;5080473;28;20038;-84
2023/07/02 11:29:02;;;;;;;35.40;13.57;;;18.80;99.90;;;;;;5080052;28;20028;-83
2023/07/02 11:31:27;;;;;;;27.98;12.82;;;18.80;99.90;;;;;;5071771;28;20044;-85
2023/07/02 11:33:53;;;;;;;26.35;11.98;;;18.90;99.90;;;;;;5080741;28;20114;-86
2023/07/02 11:36:22;;;;;;;28.77;13.10;;;19.10;99.90;;;;;;5075979;28;20385;-84
2023/07/02 11:38:50;;;;;;;32.63;12.82;;;19.30;99.90;;;;;;5078983;28;20110;-84
2023/07/02 11:41:16;;;;;;;32.05;14.27;;;19.50;99.90;;;;;;5079248;28;20528;-86
2023/07/02 11:43:41;;;;;;;36.97;13.90;;;19.40;99.90;;;;;;5081626;28;20107;-83
2023/07/02 11:46:06;;;;;;;28.60;13.55;;;19.40;99.90;;;;;;5077863;28;20098;-84
2023/07/02 11:48:32;;;;;;;31.33;13.75;;;19.40;99.90;;;;;;5080806;28;20028;-85
2023/07/02 11:50:57;;;;;;;35.42;13.40;;;19.50;99.90;;;;;;5077243;28;20040;-83
2023/07/02 11:53:23;;;;;;;32.03;13.45;;;19.70;99.90;;;;;;5073063;28;20020;-83
2023/07/02 11:55:50;;;;;;;34.88;14.95;;;19.90;99.90;;;;;;5079079;28;20013;-85
2023/07/02 11:58:16;;;;;;;28.92;13.48;;;20.20;99.90;;;;;;5076979;28;20468;-88
2023/07/02 12:00:41;;;;;;;29.70;12.73;;;20.30;99.90;;;;;;5076772;28;20051;-83
2023/07/02 12:03:07;;;;;;;31.52;13.98;;;20.30;99.90;;;;;;5085583;28;20413;-83
2023/07/02 12:05:33;;;;;;;40.13;14.82;;;20.10;99.90;;;;;;5085615;28;20025;-86
2023/07/02 12:07:58;;;;;;;34.25;13.68;;;20.10;99.90;;;;;;5078503;28;20115;-86
2023/07/02 12:10:24;;;;;;;31.60;14.00;;;20.10;99.90;;;;;;5073225;28;20385;-88
2023/07/02 12:12:49;;;;;;;27.65;12.25;;;20.20;99.90;;;;;;5084153;28;20035;-82
2023/07/02 12:15:15;;;;;;;30.65;12.25;;;20.30;99.90;;;;;;5094567;28;20035;-85
2023/07/02 12:17:40;;;;;;;28.42;13.73;;;20.40;99.90;;;;;;5083400;28;20247;-81
2023/07/02 12:20:06;;;;;;;28.67;13.60;;;20.40;99.90;;;;;;5079016;28;20024;-85
2023/07/02 12:22:32;;;;;;;29.13;13.23;;;20.50;99.90;;;;;;5085235;28;20043;-85
2023/07/02 12:24:57;;;;;;;32.97;13.40;;;20.50;99.90;;;;;;5072968;28;20035;-83
2023/07/02 12:27:25;;;;;;;33.47;14.27;;;20.40;99.90;;;;;;5082581;28;20028;-85
2023/07/02 12:29:50;;;;;;;32.55;13.75;;;20.50;99.90;;;;;;5081657;28;20141;-83
2023/07/02 12:32:16;;;;;;;39.75;14.52;;;20.50;99.90;;;;;;5083481;28;20055;-85
2023/07/02 12:34:41;;;;;;;42.22;14.98;;;20.40;99.90;;;;;;5085170;28;20036;-84
2023/07/02 12:37:07;;;;;;;34.22;14.60;;;20.20;99.90;;;;;;5085509;28;20349;-84
2023/07/02 12:39:32;;;;;;;34.72;13.40;;;20.10;99.90;;;;;;5077672;28;20097;-83